sensor_id;sensor_type;location;lat;lon;timestamp;P1;durP1;ratioP1;P2;durP2;ratioP2
70270;SDS011;57680;54.292;18.598;2023-09-19T00:00:18;30.88;;;17.92;;
70270;SDS011;57680;54.292;18.598;2023-09-19T00:02:43;29.97;;;17.63;;
70270;SDS011;57680;54.292;18.598;2023-09-19T00:05:08;28.13;;;17.70;;
70270;SDS011;57680;54.292;18.598;2023-09-19T00:07:34;36.73;;;19.07;;
70270;SDS011;57680;54.292;18.598;2023-09-19T00:09:59;29.77;;;18.07;;
70270;SDS011;57680;54.292;18.598;2023-09-19T00:12:24;27.73;;;17.53;;
70270;SDS011;57680;54.292;18.598;2023-09-19T00:14:50;29.03;;;17.53;;
70270;SDS011;57680;54.292;18.598;2023-09-19T00:17:15;30.07;;;17.87;;
70270;SDS011;57680;54.292;18.598;2023-09-19T00:19:40;27.47;;;17.73;;
70270;SDS011;57680;54.292;18.598;2023-09-19T00:22:05;28.57;;;16.70;;
70270;SDS011;57680;54.292;18.598;2023-09-19T00:24:31;28.40;;;17.90;;
70270;SDS011;57680;54.292;18.598;2023-09-19T00:26:56;27.07;;;17.83;;
70270;SDS011;57680;54.292;18.598;2023-09-19T00:29:21;30.37;;;17.70;;
70270;SDS011;57680;54.292;18.598;2023-09-19T00:31:47;27.45;;;17.38;;
70270;SDS011;57680;54.292;18.598;2023-09-19T00:34:12;27.17;;;17.23;;
70270;SDS011;57680;54.292;18.598;2023-09-19T00:36:37;28.30;;;17.47;;
70270;SDS011;57680;54.292;18.598;2023-09-19T00:39:03;27.67;;;17.40;;
70270;SDS011;57680;54.292;18.598;2023-09-19T00:41:28;27.87;;;17.70;;
70270;SDS011;57680;54.292;18.598;2023-09-19T00:43:53;29.17;;;18.67;;
70270;SDS011;57680;54.292;18.598;2023-09-19T00:46:19;28.55;;;17.58;;
70270;SDS011;57680;54.292;18.598;2023-09-19T00:48:44;29.93;;;18.40;;
70270;SDS011;57680;54.292;18.598;2023-09-19T00:51:10;31.13;;;18.37;;
70270;SDS011;57680;54.292;18.598;2023-09-19T00:53:35;30.57;;;18.73;;
70270;SDS011;57680;54.292;18.598;2023-09-19T00:56:02;30.40;;;18.47;;
70270;SDS011;57680;54.292;18.598;2023-09-19T00:58:28;32.70;;;18.95;;
70270;SDS011;57680;54.292;18.598;2023-09-19T01:00:54;30.43;;;18.10;;
70270;SDS011;57680;54.292;18.598;2023-09-19T01:03:19;28.83;;;17.63;;
70270;SDS011;57680;54.292;18.598;2023-09-19T01:05:45;31.35;;;18.52;;
70270;SDS011;57680;54.292;18.598;2023-09-19T01:08:10;28.43;;;18.60;;
70270;SDS011;57680;54.292;18.598;2023-09-19T01:10:36;30.93;;;19.33;;
70270;SDS011;57680;54.292;18.598;2023-09-19T01:13:18;28.27;;;18.25;;
70270;SDS011;57680;54.292;18.598;2023-09-19T01:15:55;31.02;;;19.02;;
70270;SDS011;57680;54.292;18.598;2023-09-19T01:21:39;32.28;;;19.40;;
70270;SDS011;57680;54.292;18.598;2023-09-19T01:24:37;33.07;;;19.70;;
70270;SDS011;57680;54.292;18.598;2023-09-19T01:29:47;31.13;;;18.67;;
70270;SDS011;57680;54.292;18.598;2023-09-19T01:32:18;31.33;;;19.25;;
70270;SDS011;57680;54.292;18.598;2023-09-19T01:37:17;31.10;;;19.50;;
70270;SDS011;57680;54.292;18.598;2023-09-19T01:39:43;31.48;;;19.30;;
70270;SDS011;57680;54.292;18.598;2023-09-19T01:42:11;33.27;;;20.03;;
70270;SDS011;57680;54.292;18.598;2023-09-19T01:47:48;32.13;;;19.02;;
70270;SDS011;57680;54.292;18.598;2023-09-19T01:52:56;32.45;;;19.30;;
70270;SDS011;57680;54.292;18.598;2023-09-19T01:55:25;30.83;;;19.57;;
70270;SDS011;57680;54.292;18.598;2023-09-19T02:00:51;30.65;;;18.67;;
70270;SDS011;57680;54.292;18.598;2023-09-19T02:03:17;34.78;;;19.27;;
70270;SDS011;57680;54.292;18.598;2023-09-19T02:05:51;30.10;;;19.05;;
70270;SDS011;57680;54.292;18.598;2023-09-19T02:08:17;32.30;;;19.30;;
70270;SDS011;57680;54.292;18.598;2023-09-19T02:10:44;29.38;;;17.77;;
70270;SDS011;57680;54.292;18.598;2023-09-19T02:13:09;29.60;;;17.03;;
70270;SDS011;57680;54.292;18.598;2023-09-19T02:15:35;23.60;;;15.02;;
70270;SDS011;57680;54.292;18.598;2023-09-19T02:18:00;23.00;;;14.40;;
70270;SDS011;57680;54.292;18.598;2023-09-19T02:20:25;22.97;;;13.47;;
70270;SDS011;57680;54.292;18.598;2023-09-19T02:22:51;22.70;;;12.57;;
70270;SDS011;57680;54.292;18.598;2023-09-19T02:25:16;19.40;;;11.43;;
70270;SDS011;57680;54.292;18.598;2023-09-19T02:27:41;18.05;;;10.43;;
70270;SDS011;57680;54.292;18.598;2023-09-19T02:30:07;15.93;;;9.30;;
70270;SDS011;57680;54.292;18.598;2023-09-19T02:32:32;16.63;;;9.53;;
70270;SDS011;57680;54.292;18.598;2023-09-19T02:34:58;18.07;;;9.97;;
70270;SDS011;57680;54.292;18.598;2023-09-19T02:37:23;18.20;;;10.70;;
70270;SDS011;57680;54.292;18.598;2023-09-19T02:39:48;17.43;;;10.53;;
70270;SDS011;57680;54.292;18.598;2023-09-19T02:42:13;18.23;;;9.60;;
70270;SDS011;57680;54.292;18.598;2023-09-19T02:44:39;15.77;;;8.83;;
70270;SDS011;57680;54.292;18.598;2023-09-19T02:47:04;14.40;;;7.10;;
70270;SDS011;57680;54.292;18.598;2023-09-19T02:49:29;12.27;;;7.17;;
70270;SDS011;57680;54.292;18.598;2023-09-19T02:51:55;10.80;;;6.00;;
70270;SDS011;57680;54.292;18.598;2023-09-19T02:54:20;12.90;;;5.47;;
70270;SDS011;57680;54.292;18.598;2023-09-19T02:56:45;11.67;;;5.53;;
70270;SDS011;57680;54.292;18.598;2023-09-19T02:59:10;10.03;;;5.40;;
70270;SDS011;57680;54.292;18.598;2023-09-19T03:01:36;12.63;;;5.57;;
70270;SDS011;57680;54.292;18.598;2023-09-19T03:04:02;11.88;;;5.40;;
70270;SDS011;57680;54.292;18.598;2023-09-19T03:06:27;12.17;;;5.03;;
70270;SDS011;57680;54.292;18.598;2023-09-19T03:08:52;10.37;;;4.97;;
70270;SDS011;57680;54.292;18.598;2023-09-19T03:11:18;9.50;;;4.93;;
70270;SDS011;57680;54.292;18.598;2023-09-19T03:13:43;10.50;;;4.38;;
70270;SDS011;57680;54.292;18.598;2023-09-19T03:16:08;11.17;;;5.13;;
70270;SDS011;57680;54.292;18.598;2023-09-19T03:18:34;9.93;;;4.57;;
70270;SDS011;57680;54.292;18.598;2023-09-19T03:20:59;12.13;;;4.50;;
70270;SDS011;57680;54.292;18.598;2023-09-19T03:23:25;11.60;;;4.37;;
70270;SDS011;57680;54.292;18.598;2023-09-19T03:25:51;8.50;;;4.30;;
70270;SDS011;57680;54.292;18.598;2023-09-19T03:28:16;8.55;;;4.28;;
70270;SDS011;57680;54.292;18.598;2023-09-19T03:30:42;10.67;;;4.97;;
70270;SDS011;57680;54.292;18.598;2023-09-19T03:33:07;9.87;;;4.53;;
70270;SDS011;57680;54.292;18.598;2023-09-19T03:35:32;11.53;;;4.83;;
70270;SDS011;57680;54.292;18.598;2023-09-19T03:37:57;9.40;;;4.70;;
70270;SDS011;57680;54.292;18.598;2023-09-19T03:40:23;10.27;;;4.80;;
70270;SDS011;57680;54.292;18.598;2023-09-19T03:42:48;10.77;;;4.70;;
70270;SDS011;57680;54.292;18.598;2023-09-19T03:45:13;9.30;;;4.40;;
70270;SDS011;57680;54.292;18.598;2023-09-19T03:47:39;11.63;;;4.57;;
70270;SDS011;57680;54.292;18.598;2023-09-19T03:50:05;8.83;;;4.40;;
70270;SDS011;57680;54.292;18.598;2023-09-19T03:52:31;10.00;;;4.80;;
70270;SDS011;57680;54.292;18.598;2023-09-19T03:54:56;10.40;;;4.90;;
70270;SDS011;57680;54.292;18.598;2023-09-19T03:57:21;12.70;;;4.97;;
70270;SDS011;57680;54.292;18.598;2023-09-19T03:59:46;14.40;;;5.57;;
70270;SDS011;57680;54.292;18.598;2023-09-19T04:02:12;9.23;;;4.70;;
70270;SDS011;57680;54.292;18.598;2023-09-19T04:04:37;13.35;;;5.03;;
70270;SDS011;57680;54.292;18.598;2023-09-19T04:07:03;11.50;;;5.00;;
70270;SDS011;57680;54.292;18.598;2023-09-19T04:09:28;10.47;;;4.70;;
70270;SDS011;57680;54.292;18.598;2023-09-19T04:11:53;13.27;;;5.33;;
70270;SDS011;57680;54.292;18.598;2023-09-19T04:14:19;12.50;;;5.27;;
70270;SDS011;57680;54.292;18.598;2023-09-19T04:16:44;16.17;;;5.33;;
70270;SDS011;57680;54.292;18.598;2023-09-19T04:19:09;11.50;;;5.63;;
70270;SDS011;57680;54.292;18.598;2023-09-19T04:21:35;13.95;;;5.82;;
70270;SDS011;57680;54.292;18.598;2023-09-19T04:24:00;14.40;;;6.30;;
70270;SDS011;57680;54.292;18.598;2023-09-19T04:26:25;12.57;;;5.87;;
70270;SDS011;57680;54.292;18.598;2023-09-19T04:28:51;13.37;;;6.33;;
70270;SDS011;57680;54.292;18.598;2023-09-19T04:31:16;14.80;;;8.03;;
70270;SDS011;57680;54.292;18.598;2023-09-19T04:33:41;13.85;;;7.53;;
70270;SDS011;57680;54.292;18.598;2023-09-19T04:36:07;14.23;;;6.93;;
70270;SDS011;57680;54.292;18.598;2023-09-19T04:38:32;15.33;;;6.93;;
70270;SDS011;57680;54.292;18.598;2023-09-19T04:40:57;12.30;;;6.30;;
70270;SDS011;57680;54.292;18.598;2023-09-19T04:43:23;11.53;;;5.87;;
70270;SDS011;57680;54.292;18.598;2023-09-19T04:45:48;14.50;;;6.30;;
70270;SDS011;57680;54.292;18.598;2023-09-19T04:48:13;12.30;;;6.27;;
70270;SDS011;57680;54.292;18.598;2023-09-19T04:50:39;13.60;;;6.73;;
70270;SDS011;57680;54.292;18.598;2023-09-19T04:53:04;13.60;;;6.47;;
70270;SDS011;57680;54.292;18.598;2023-09-19T04:55:29;13.87;;;6.90;;
70270;SDS011;57680;54.292;18.598;2023-09-19T04:57:55;13.43;;;6.47;;
70270;SDS011;57680;54.292;18.598;2023-09-19T05:00:21;13.67;;;6.67;;
70270;SDS011;57680;54.292;18.598;2023-09-19T05:02:48;14.93;;;6.50;;
70270;SDS011;57680;54.292;18.598;2023-09-19T05:05:17;13.73;;;6.57;;
70270;SDS011;57680;54.292;18.598;2023-09-19T05:07:43;15.05;;;6.70;;
70270;SDS011;57680;54.292;18.598;2023-09-19T05:10:08;13.30;;;6.00;;
70270;SDS011;57680;54.292;18.598;2023-09-19T05:12:34;13.50;;;6.60;;
70270;SDS011;57680;54.292;18.598;2023-09-19T05:15:00;15.68;;;6.93;;
70270;SDS011;57680;54.292;18.598;2023-09-19T05:17:25;14.48;;;6.80;;
70270;SDS011;57680;54.292;18.598;2023-09-19T05:19:51;14.43;;;6.47;;
70270;SDS011;57680;54.292;18.598;2023-09-19T05:22:16;14.00;;;6.50;;
70270;SDS011;57680;54.292;18.598;2023-09-19T05:24:41;12.37;;;6.40;;
70270;SDS011;57680;54.292;18.598;2023-09-19T05:27:07;12.50;;;5.93;;
70270;SDS011;57680;54.292;18.598;2023-09-19T05:29:32;12.90;;;6.33;;
70270;SDS011;57680;54.292;18.598;2023-09-19T05:31:57;12.47;;;6.23;;
70270;SDS011;57680;54.292;18.598;2023-09-19T05:34:23;14.93;;;6.50;;
70270;SDS011;57680;54.292;18.598;2023-09-19T05:36:48;12.50;;;6.20;;
70270;SDS011;57680;54.292;18.598;2023-09-19T05:39:13;12.70;;;6.10;;
70270;SDS011;57680;54.292;18.598;2023-09-19T05:41:39;12.73;;;7.00;;
70270;SDS011;57680;54.292;18.598;2023-09-19T05:44:04;12.57;;;5.70;;
70270;SDS011;57680;54.292;18.598;2023-09-19T05:46:29;15.37;;;6.77;;
70270;SDS011;57680;54.292;18.598;2023-09-19T05:48:55;15.70;;;6.20;;
70270;SDS011;57680;54.292;18.598;2023-09-19T05:51:20;13.77;;;6.60;;
70270;SDS011;57680;54.292;18.598;2023-09-19T05:53:46;12.63;;;5.93;;
70270;SDS011;57680;54.292;18.598;2023-09-19T05:56:11;13.00;;;6.40;;
70270;SDS011;57680;54.292;18.598;2023-09-19T05:58:36;11.10;;;6.00;;
70270;SDS011;57680;54.292;18.598;2023-09-19T06:01:02;12.80;;;6.10;;
70270;SDS011;57680;54.292;18.598;2023-09-19T06:03:27;13.63;;;6.30;;
70270;SDS011;57680;54.292;18.598;2023-09-19T06:05:52;11.37;;;5.43;;
70270;SDS011;57680;54.292;18.598;2023-09-19T06:08:17;13.60;;;6.37;;
70270;SDS011;57680;54.292;18.598;2023-09-19T06:10:43;12.43;;;6.40;;
70270;SDS011;57680;54.292;18.598;2023-09-19T06:13:08;15.20;;;6.93;;
70270;SDS011;57680;54.292;18.598;2023-09-19T06:15:33;12.80;;;5.90;;
70270;SDS011;57680;54.292;18.598;2023-09-19T06:17:59;13.98;;;5.80;;
70270;SDS011;57680;54.292;18.598;2023-09-19T06:20:25;14.27;;;6.10;;
70270;SDS011;57680;54.292;18.598;2023-09-19T06:22:51;10.18;;;5.43;;
70270;SDS011;57680;54.292;18.598;2023-09-19T06:25:17;12.00;;;5.77;;
70270;SDS011;57680;54.292;18.598;2023-09-19T06:27:42;10.90;;;5.10;;
70270;SDS011;57680;54.292;18.598;2023-09-19T06:30:08;10.93;;;5.27;;
70270;SDS011;57680;54.292;18.598;2023-09-19T06:32:34;10.33;;;5.00;;
70270;SDS011;57680;54.292;18.598;2023-09-19T06:35:00;9.27;;;4.70;;
70270;SDS011;57680;54.292;18.598;2023-09-19T06:37:28;8.70;;;4.73;;
70270;SDS011;57680;54.292;18.598;2023-09-19T06:39:54;12.40;;;5.60;;
70270;SDS011;57680;54.292;18.598;2023-09-19T06:42:20;10.37;;;5.30;;
70270;SDS011;57680;54.292;18.598;2023-09-19T06:44:45;9.23;;;4.70;;
70270;SDS011;57680;54.292;18.598;2023-09-19T06:47:10;11.70;;;5.50;;
70270;SDS011;57680;54.292;18.598;2023-09-19T06:49:36;10.20;;;5.13;;
70270;SDS011;57680;54.292;18.598;2023-09-19T06:52:02;10.10;;;5.10;;
70270;SDS011;57680;54.292;18.598;2023-09-19T06:54:28;10.20;;;4.93;;
70270;SDS011;57680;54.292;18.598;2023-09-19T06:56:53;9.30;;;5.60;;
70270;SDS011;57680;54.292;18.598;2023-09-19T06:59:18;12.00;;;5.40;;
70270;SDS011;57680;54.292;18.598;2023-09-19T07:01:44;9.35;;;4.85;;
70270;SDS011;57680;54.292;18.598;2023-09-19T07:04:09;10.13;;;5.23;;
70270;SDS011;57680;54.292;18.598;2023-09-19T07:06:34;10.73;;;4.60;;
70270;SDS011;57680;54.292;18.598;2023-09-19T07:09:00;10.17;;;4.90;;
70270;SDS011;57680;54.292;18.598;2023-09-19T07:11:25;8.87;;;4.30;;
70270;SDS011;57680;54.292;18.598;2023-09-19T07:13:50;10.10;;;4.43;;
70270;SDS011;57680;54.292;18.598;2023-09-19T07:16:16;8.67;;;4.60;;
70270;SDS011;57680;54.292;18.598;2023-09-19T07:18:41;10.10;;;4.40;;
70270;SDS011;57680;54.292;18.598;2023-09-19T07:21:06;10.00;;;4.77;;
70270;SDS011;57680;54.292;18.598;2023-09-19T07:23:31;11.30;;;5.13;;
70270;SDS011;57680;54.292;18.598;2023-09-19T07:25:57;8.27;;;4.57;;
70270;SDS011;57680;54.292;18.598;2023-09-19T07:28:22;9.27;;;4.43;;
70270;SDS011;57680;54.292;18.598;2023-09-19T07:30:47;9.60;;;4.70;;
70270;SDS011;57680;54.292;18.598;2023-09-19T07:33:13;8.50;;;4.63;;
70270;SDS011;57680;54.292;18.598;2023-09-19T07:35:38;8.90;;;4.68;;
70270;SDS011;57680;54.292;18.598;2023-09-19T07:38:04;11.93;;;4.70;;
70270;SDS011;57680;54.292;18.598;2023-09-19T07:40:29;7.73;;;4.20;;
70270;SDS011;57680;54.292;18.598;2023-09-19T07:42:55;9.80;;;4.73;;
70270;SDS011;57680;54.292;18.598;2023-09-19T07:45:20;10.73;;;4.93;;
70270;SDS011;57680;54.292;18.598;2023-09-19T07:47:46;9.67;;;4.83;;
70270;SDS011;57680;54.292;18.598;2023-09-19T07:50:13;9.98;;;4.78;;
70270;SDS011;57680;54.292;18.598;2023-09-19T07:52:39;8.25;;;4.32;;
70270;SDS011;57680;54.292;18.598;2023-09-19T07:55:05;11.17;;;5.20;;
70270;SDS011;57680;54.292;18.598;2023-09-19T07:57:31;9.07;;;4.85;;
70270;SDS011;57680;54.292;18.598;2023-09-19T07:59:56;8.40;;;4.90;;
70270;SDS011;57680;54.292;18.598;2023-09-19T08:02:21;10.33;;;5.20;;
70270;SDS011;57680;54.292;18.598;2023-09-19T08:04:47;9.33;;;4.97;;
70270;SDS011;57680;54.292;18.598;2023-09-19T08:07:12;11.27;;;4.80;;
70270;SDS011;57680;54.292;18.598;2023-09-19T08:09:38;8.77;;;4.60;;
70270;SDS011;57680;54.292;18.598;2023-09-19T08:12:03;10.57;;;5.20;;
70270;SDS011;57680;54.292;18.598;2023-09-19T08:14:29;8.10;;;4.68;;
70270;SDS011;57680;54.292;18.598;2023-09-19T08:16:58;9.80;;;4.93;;
70270;SDS011;57680;54.292;18.598;2023-09-19T08:19:23;9.47;;;4.73;;
70270;SDS011;57680;54.292;18.598;2023-09-19T08:21:49;9.00;;;4.80;;
70270;SDS011;57680;54.292;18.598;2023-09-19T08:24:14;9.30;;;4.70;;
70270;SDS011;57680;54.292;18.598;2023-09-19T08:26:39;9.43;;;4.90;;
70270;SDS011;57680;54.292;18.598;2023-09-19T08:29:04;8.23;;;4.70;;
70270;SDS011;57680;54.292;18.598;2023-09-19T08:31:30;7.80;;;4.57;;
70270;SDS011;57680;54.292;18.598;2023-09-19T08:33:55;6.80;;;3.78;;
70270;SDS011;57680;54.292;18.598;2023-09-19T08:36:20;7.90;;;3.70;;
70270;SDS011;57680;54.292;18.598;2023-09-19T08:38:46;7.63;;;4.03;;
70270;SDS011;57680;54.292;18.598;2023-09-19T08:41:11;8.20;;;3.93;;
70270;SDS011;57680;54.292;18.598;2023-09-19T08:43:36;7.43;;;3.50;;
70270;SDS011;57680;54.292;18.598;2023-09-19T08:48:30;7.50;;;3.55;;
70270;SDS011;57680;54.292;18.598;2023-09-19T08:51:03;7.70;;;3.67;;
70270;SDS011;57680;54.292;18.598;2023-09-19T08:53:41;9.18;;;3.75;;
70270;SDS011;57680;54.292;18.598;2023-09-19T08:56:12;6.83;;;3.27;;
70270;SDS011;57680;54.292;18.598;2023-09-19T08:58:45;8.07;;;3.30;;
70270;SDS011;57680;54.292;18.598;2023-09-19T09:01:15;5.43;;;3.10;;
70270;SDS011;57680;54.292;18.598;2023-09-19T09:03:40;5.95;;;3.00;;
70270;SDS011;57680;54.292;18.598;2023-09-19T09:06:08;6.10;;;3.05;;
70270;SDS011;57680;54.292;18.598;2023-09-19T09:08:33;5.20;;;3.00;;
70270;SDS011;57680;54.292;18.598;2023-09-19T09:10:58;5.37;;;3.00;;
70270;SDS011;57680;54.292;18.598;2023-09-19T09:13:24;7.63;;;2.93;;
70270;SDS011;57680;54.292;18.598;2023-09-19T09:15:49;6.53;;;2.90;;
70270;SDS011;57680;54.292;18.598;2023-09-19T09:18:15;10.23;;;3.23;;
70270;SDS011;57680;54.292;18.598;2023-09-19T09:20:40;7.87;;;3.00;;
70270;SDS011;57680;54.292;18.598;2023-09-19T09:23:05;7.33;;;2.80;;
70270;SDS011;57680;54.292;18.598;2023-09-19T09:28:19;8.88;;;2.97;;
70270;SDS011;57680;54.292;18.598;2023-09-19T09:30:45;5.93;;;2.78;;
70270;SDS011;57680;54.292;18.598;2023-09-19T09:33:11;9.13;;;2.70;;
70270;SDS011;57680;54.292;18.598;2023-09-19T09:35:46;6.90;;;2.30;;
70270;SDS011;57680;54.292;18.598;2023-09-19T09:38:12;6.75;;;2.10;;
70270;SDS011;57680;54.292;18.598;2023-09-19T09:40:48;8.10;;;2.40;;
70270;SDS011;57680;54.292;18.598;2023-09-19T09:48:36;8.23;;;2.10;;
70270;SDS011;57680;54.292;18.598;2023-09-19T09:51:01;5.50;;;2.25;;
70270;SDS011;57680;54.292;18.598;2023-09-19T09:53:27;6.63;;;2.50;;
70270;SDS011;57680;54.292;18.598;2023-09-19T09:56:06;5.32;;;2.38;;
70270;SDS011;57680;54.292;18.598;2023-09-19T09:58:33;5.83;;;2.30;;
70270;SDS011;57680;54.292;18.598;2023-09-19T10:01:03;5.80;;;2.30;;
70270;SDS011;57680;54.292;18.598;2023-09-19T10:03:33;5.75;;;2.20;;
70270;SDS011;57680;54.292;18.598;2023-09-19T10:06:00;5.68;;;2.42;;
70270;SDS011;57680;54.292;18.598;2023-09-19T10:08:25;7.70;;;2.07;;
70270;SDS011;57680;54.292;18.598;2023-09-19T10:10:51;6.30;;;2.53;;
70270;SDS011;57680;54.292;18.598;2023-09-19T10:13:16;4.73;;;2.20;;
70270;SDS011;57680;54.292;18.598;2023-09-19T10:15:43;5.47;;;2.30;;
70270;SDS011;57680;54.292;18.598;2023-09-19T10:18:10;4.43;;;2.00;;
70270;SDS011;57680;54.292;18.598;2023-09-19T10:20:39;5.75;;;2.22;;
70270;SDS011;57680;54.292;18.598;2023-09-19T10:23:06;4.82;;;2.15;;
70270;SDS011;57680;54.292;18.598;2023-09-19T10:25:33;4.55;;;2.20;;
70270;SDS011;57680;54.292;18.598;2023-09-19T10:28:01;8.23;;;2.37;;
70270;SDS011;57680;54.292;18.598;2023-09-19T10:30:27;7.28;;;2.40;;
70270;SDS011;57680;54.292;18.598;2023-09-19T10:33:00;4.15;;;2.10;;
70270;SDS011;57680;54.292;18.598;2023-09-19T10:35:27;4.75;;;2.20;;
70270;SDS011;57680;54.292;18.598;2023-09-19T10:37:54;6.10;;;2.15;;
70270;SDS011;57680;54.292;18.598;2023-09-19T10:40:21;6.33;;;2.20;;
70270;SDS011;57680;54.292;18.598;2023-09-19T10:42:48;4.47;;;1.90;;
70270;SDS011;57680;54.292;18.598;2023-09-19T10:45:15;4.90;;;2.10;;
70270;SDS011;57680;54.292;18.598;2023-09-19T10:47:42;5.55;;;1.80;;
70270;SDS011;57680;54.292;18.598;2023-09-19T10:50:07;5.23;;;2.03;;
70270;SDS011;57680;54.292;18.598;2023-09-19T10:52:33;5.97;;;1.80;;
70270;SDS011;57680;54.292;18.598;2023-09-19T10:55:02;5.88;;;1.80;;
70270;SDS011;57680;54.292;18.598;2023-09-19T10:57:27;6.95;;;1.75;;
70270;SDS011;57680;54.292;18.598;2023-09-19T11:00:06;5.10;;;1.90;;
70270;SDS011;57680;54.292;18.598;2023-09-19T11:02:32;8.15;;;2.40;;
70270;SDS011;57680;54.292;18.598;2023-09-19T11:05:04;5.20;;;1.70;;
70270;SDS011;57680;54.292;18.598;2023-09-19T11:13:27;9.25;;;1.88;;
70270;SDS011;57680;54.292;18.598;2023-09-19T11:24:27;7.00;;;2.00;;
70270;SDS011;57680;54.292;18.598;2023-09-19T11:26:40;7.03;;;1.60;;
70270;SDS011;57680;54.292;18.598;2023-09-19T11:29:24;5.97;;;1.83;;
70270;SDS011;57680;54.292;18.598;2023-09-19T11:31:51;7.68;;;2.05;;
70270;SDS011;57680;54.292;18.598;2023-09-19T11:37:00;7.50;;;1.80;;
70270;SDS011;57680;54.292;18.598;2023-09-19T11:39:26;6.97;;;1.80;;
70270;SDS011;57680;54.292;18.598;2023-09-19T11:41:51;8.40;;;1.70;;
70270;SDS011;57680;54.292;18.598;2023-09-19T11:49:16;6.60;;;1.92;;
70270;SDS011;57680;54.292;18.598;2023-09-19T11:51:43;6.37;;;1.60;;
70270;SDS011;57680;54.292;18.598;2023-09-19T11:54:10;4.95;;;1.85;;
70270;SDS011;57680;54.292;18.598;2023-09-19T11:56:39;4.28;;;1.55;;
70270;SDS011;57680;54.292;18.598;2023-09-19T11:59:05;5.57;;;1.40;;
70270;SDS011;57680;54.292;18.598;2023-09-19T12:01:32;7.50;;;1.50;;
70270;SDS011;57680;54.292;18.598;2023-09-19T12:03:58;5.10;;;1.40;;
70270;SDS011;57680;54.292;18.598;2023-09-19T12:06:25;4.97;;;1.38;;
70270;SDS011;57680;54.292;18.598;2023-09-19T12:08:51;6.55;;;1.50;;
70270;SDS011;57680;54.292;18.598;2023-09-19T12:11:17;6.13;;;1.57;;
70270;SDS011;57680;54.292;18.598;2023-09-19T12:13:43;10.02;;;1.58;;
70270;SDS011;57680;54.292;18.598;2023-09-19T12:16:13;7.33;;;1.83;;
70270;SDS011;57680;54.292;18.598;2023-09-19T12:18:41;3.95;;;1.35;;
70270;SDS011;57680;54.292;18.598;2023-09-19T12:21:07;4.78;;;1.50;;
70270;SDS011;57680;54.292;18.598;2023-09-19T12:23:33;4.43;;;1.50;;
70270;SDS011;57680;54.292;18.598;2023-09-19T12:25:58;6.37;;;1.60;;
70270;SDS011;57680;54.292;18.598;2023-09-19T12:28:27;5.75;;;1.45;;
70270;SDS011;57680;54.292;18.598;2023-09-19T12:30:52;4.30;;;1.25;;
70270;SDS011;57680;54.292;18.598;2023-09-19T12:33:18;9.97;;;1.60;;
70270;SDS011;57680;54.292;18.598;2023-09-19T12:35:44;5.10;;;1.63;;
70270;SDS011;57680;54.292;18.598;2023-09-19T12:38:10;12.23;;;2.03;;
70270;SDS011;57680;54.292;18.598;2023-09-19T12:40:35;6.43;;;1.63;;
70270;SDS011;57680;54.292;18.598;2023-09-19T12:43:01;6.43;;;1.80;;
70270;SDS011;57680;54.292;18.598;2023-09-19T12:45:26;4.93;;;1.67;;
70270;SDS011;57680;54.292;18.598;2023-09-19T12:51:08;4.40;;;1.70;;
70270;SDS011;57680;54.292;18.598;2023-09-19T12:56:02;9.32;;;1.90;;
70270;SDS011;57680;54.292;18.598;2023-09-19T12:58:27;5.63;;;1.83;;
70270;SDS011;57680;54.292;18.598;2023-09-19T13:00:53;4.47;;;1.88;;
70270;SDS011;57680;54.292;18.598;2023-09-19T13:03:25;6.07;;;2.00;;
70270;SDS011;57680;54.292;18.598;2023-09-19T13:05:52;6.95;;;1.80;;
70270;SDS011;57680;54.292;18.598;2023-09-19T13:08:29;5.72;;;1.90;;
70270;SDS011;57680;54.292;18.598;2023-09-19T13:11:03;9.25;;;2.08;;
70270;SDS011;57680;54.292;18.598;2023-09-19T13:13:29;4.90;;;1.90;;
70270;SDS011;57680;54.292;18.598;2023-09-19T13:15:55;5.88;;;1.90;;
70270;SDS011;57680;54.292;18.598;2023-09-19T13:18:20;7.03;;;1.90;;
70270;SDS011;57680;54.292;18.598;2023-09-19T13:21:05;12.10;;;2.00;;
70270;SDS011;57680;54.292;18.598;2023-09-19T13:23:31;6.47;;;1.60;;
70270;SDS011;57680;54.292;18.598;2023-09-19T13:25:56;4.93;;;1.50;;
70270;SDS011;57680;54.292;18.598;2023-09-19T13:28:21;6.87;;;1.60;;
70270;SDS011;57680;54.292;18.598;2023-09-19T13:30:47;4.40;;;1.70;;
70270;SDS011;57680;54.292;18.598;2023-09-19T13:33:12;5.00;;;1.70;;
70270;SDS011;57680;54.292;18.598;2023-09-19T13:35:40;6.57;;;1.70;;
70270;SDS011;57680;54.292;18.598;2023-09-19T13:38:06;6.57;;;1.50;;
70270;SDS011;57680;54.292;18.598;2023-09-19T13:40:31;14.10;;;1.85;;
70270;SDS011;57680;54.292;18.598;2023-09-19T13:42:57;18.97;;;1.70;;
70270;SDS011;57680;54.292;18.598;2023-09-19T13:45:22;9.98;;;1.77;;
70270;SDS011;57680;54.292;18.598;2023-09-19T13:47:48;5.67;;;1.50;;
70270;SDS011;57680;54.292;18.598;2023-09-19T13:50:13;5.40;;;1.60;;
70270;SDS011;57680;54.292;18.598;2023-09-19T13:52:39;7.13;;;1.57;;
70270;SDS011;57680;54.292;18.598;2023-09-19T13:55:04;7.45;;;1.70;;
70270;SDS011;57680;54.292;18.598;2023-09-19T13:57:30;8.43;;;1.53;;
70270;SDS011;57680;54.292;18.598;2023-09-19T13:59:55;7.90;;;1.80;;
70270;SDS011;57680;54.292;18.598;2023-09-19T14:02:21;6.50;;;1.77;;
70270;SDS011;57680;54.292;18.598;2023-09-19T14:04:47;7.90;;;1.70;;
70270;SDS011;57680;54.292;18.598;2023-09-19T14:07:12;8.20;;;1.90;;
70270;SDS011;57680;54.292;18.598;2023-09-19T14:09:38;8.80;;;1.80;;
70270;SDS011;57680;54.292;18.598;2023-09-19T14:12:03;8.80;;;1.67;;
70270;SDS011;57680;54.292;18.598;2023-09-19T14:14:28;4.50;;;1.50;;
70270;SDS011;57680;54.292;18.598;2023-09-19T14:16:54;8.93;;;1.87;;
70270;SDS011;57680;54.292;18.598;2023-09-19T14:19:19;5.47;;;1.50;;
70270;SDS011;57680;54.292;18.598;2023-09-19T14:21:44;6.27;;;1.60;;
70270;SDS011;57680;54.292;18.598;2023-09-19T14:24:10;7.40;;;1.57;;
70270;SDS011;57680;54.292;18.598;2023-09-19T14:26:35;5.83;;;1.70;;
70270;SDS011;57680;54.292;18.598;2023-09-19T14:29:01;7.78;;;1.77;;
70270;SDS011;57680;54.292;18.598;2023-09-19T14:31:26;5.97;;;1.50;;
70270;SDS011;57680;54.292;18.598;2023-09-19T14:33:55;12.77;;;2.30;;
70270;SDS011;57680;54.292;18.598;2023-09-19T14:36:21;5.60;;;1.95;;
70270;SDS011;57680;54.292;18.598;2023-09-19T14:38:47;4.55;;;1.90;;
70270;SDS011;57680;54.292;18.598;2023-09-19T14:41:12;5.57;;;1.90;;
70270;SDS011;57680;54.292;18.598;2023-09-19T14:43:38;8.17;;;1.87;;
70270;SDS011;57680;54.292;18.598;2023-09-19T14:46:03;9.13;;;1.70;;
70270;SDS011;57680;54.292;18.598;2023-09-19T14:48:31;8.38;;;1.83;;
70270;SDS011;57680;54.292;18.598;2023-09-19T14:51:01;9.03;;;2.10;;
70270;SDS011;57680;54.292;18.598;2023-09-19T14:53:27;5.60;;;1.70;;
70270;SDS011;57680;54.292;18.598;2023-09-19T14:55:52;4.63;;;1.40;;
70270;SDS011;57680;54.292;18.598;2023-09-19T14:58:18;5.07;;;1.60;;
70270;SDS011;57680;54.292;18.598;2023-09-19T15:00:43;4.90;;;1.70;;
70270;SDS011;57680;54.292;18.598;2023-09-19T15:03:08;4.93;;;1.80;;
70270;SDS011;57680;54.292;18.598;2023-09-19T15:05:33;5.70;;;1.70;;
70270;SDS011;57680;54.292;18.598;2023-09-19T15:07:59;9.03;;;2.17;;
70270;SDS011;57680;54.292;18.598;2023-09-19T15:10:24;5.83;;;1.93;;
70270;SDS011;57680;54.292;18.598;2023-09-19T15:12:50;5.33;;;1.67;;
70270;SDS011;57680;54.292;18.598;2023-09-19T15:15:15;6.72;;;1.80;;